createdAt,value
2017-09-25T00:00:12.795Z,88.79
2017-09-25T00:02:41.150Z,88.62
2017-09-25T00:05:09.491Z,88.41
2017-09-25T00:07:37.835Z,89.14
2017-09-25T00:10:06.182Z,89.03
2017-09-25T00:12:34.559Z,89.47
2017-09-25T00:15:03.063Z,89.48
2017-09-25T00:17:31.530Z,90.18
2017-09-25T00:19:59.879Z,90.09
2017-09-25T00:22:28.227Z,89.94
2017-09-25T00:24:56.602Z,90.29
2017-09-25T00:27:24.954Z,89.50
2017-09-25T00:29:53.302Z,89.17
2017-09-25T00:32:21.674Z,89.12
2017-09-25T00:34:50.028Z,88.43
2017-09-25T00:37:18.378Z,88.23
2017-09-25T00:39:46.774Z,88.68
2017-09-25T00:42:15.123Z,88.46
2017-09-25T00:44:43.474Z,88.57
2017-09-25T00:47:11.863Z,88.14
2017-09-25T00:49:40.211Z,88.46
2017-09-25T00:52:08.565Z,88.91
2017-09-25T00:54:36.915Z,88.55
2017-09-25T00:57:05.291Z,88.73
2017-09-25T00:59:33.643Z,88.61
2017-09-25T01:02:13.723Z,87.92
2017-09-25T01:04:53.590Z,88.31
2017-09-25T01:07:21.947Z,88.18
2017-09-25T01:09:50.286Z,87.32
2017-09-25T01:12:18.634Z,87.29
2017-09-25T01:14:46.984Z,86.76
2017-09-25T01:17:15.453Z,86.75
2017-09-25T01:19:43.807Z,86.51
2017-09-25T01:22:12.159Z,86.31
2017-09-25T01:24:40.530Z,86.61
2017-09-25T01:27:08.874Z,87.13
2017-09-25T01:29:37.250Z,87.29
2017-09-25T01:32:05.608Z,86.95
2017-09-25T01:34:33.965Z,86.90
2017-09-25T01:37:02.303Z,86.40
2017-09-25T01:39:30.647Z,86.52
2017-09-25T01:41:59.014Z,86.24
2017-09-25T01:44:27.350Z,86.15
2017-09-25T01:46:55.691Z,86.27
2017-09-25T01:49:24.029Z,85.65
2017-09-25T01:51:52.375Z,85.67
2017-09-25T01:54:20.718Z,85.70
2017-09-25T01:56:49.094Z,85.65
2017-09-25T01:59:17.471Z,85.64
2017-09-25T02:01:45.813Z,85.71
2017-09-25T02:04:14.598Z,85.63
2017-09-25T02:06:42.967Z,85.89
2017-09-25T02:09:11.308Z,86.05
2017-09-25T02:11:39.711Z,85.65
2017-09-25T02:14:08.034Z,86.39
2017-09-25T02:16:36.381Z,86.72
2017-09-25T02:19:04.842Z,87.34
2017-09-25T02:21:33.190Z,87.61
2017-09-25T02:24:01.533Z,86.84
2017-09-25T02:26:29.878Z,86.78
2017-09-25T02:28:58.246Z,85.99
2017-09-25T02:31:26.620Z,86.57
2017-09-25T02:33:55.001Z,86.70
2017-09-25T02:36:23.346Z,86.25
2017-09-25T02:38:51.818Z,86.45
2017-09-25T02:41:20.163Z,86.36
2017-09-25T02:43:48.507Z,86.66
2017-09-25T02:46:16.850Z,86.54
2017-09-25T02:48:45.210Z,86.81
2017-09-25T02:51:13.558Z,86.81
2017-09-25T02:53:41.926Z,87.00
2017-09-25T02:56:10.269Z,86.54
2017-09-25T02:58:38.645Z,86.20
2017-09-25T03:01:07.007Z,85.61
2017-09-25T03:03:35.355Z,85.90
2017-09-25T03:06:04.400Z,86.03
2017-09-25T03:08:32.752Z,85.99
2017-09-25T03:11:01.133Z,86.27
2017-09-25T03:13:30.394Z,86.16
2017-09-25T03:15:58.792Z,86.98
2017-09-25T03:18:27.131Z,87.12
2017-09-25T03:20:55.499Z,87.42
2017-09-25T03:23:24.055Z,86.92
2017-09-25T03:25:53.307Z,87.16
2017-09-25T03:28:22.701Z,87.53
2017-09-25T03:30:51.053Z,88.18
2017-09-25T03:33:19.422Z,88.07
2017-09-25T03:35:47.771Z,87.79
2017-09-25T03:38:16.127Z,87.76
2017-09-25T03:40:44.508Z,88.31
2017-09-25T03:43:12.872Z,87.90
2017-09-25T03:45:41.239Z,88.46
2017-09-25T03:48:10.188Z,88.78
2017-09-25T03:50:38.575Z,89.01
2017-09-25T03:53:06.935Z,88.80
2017-09-25T03:55:35.322Z,89.12
2017-09-25T03:58:03.679Z,89.37
2017-09-25T04:00:32.029Z,89.49
2017-09-25T04:03:00.381Z,89.53
2017-09-25T04:05:28.726Z,88.30
2017-09-25T04:07:57.127Z,88.75
2017-09-25T04:10:25.492Z,88.63
2017-09-25T04:12:53.850Z,88.32
2017-09-25T04:15:22.235Z,87.51
2017-09-25T04:17:50.624Z,87.84
2017-09-25T04:20:18.985Z,87.67
2017-09-25T04:22:47.372Z,88.55
2017-09-25T04:25:16.250Z,87.57
2017-09-25T04:27:44.603Z,87.16
2017-09-25T04:30:12.980Z,87.33
2017-09-25T04:32:41.332Z,87.92
2017-09-25T04:35:09.704Z,87.71
2017-09-25T04:37:38.106Z,88.12
2017-09-25T04:40:06.466Z,87.38
2017-09-25T04:42:36.735Z,87.63
2017-09-25T04:45:05.085Z,87.58
2017-09-25T04:47:33.448Z,87.59
2017-09-25T04:50:01.788Z,87.48
2017-09-25T04:52:30.149Z,88.22
2017-09-25T04:54:58.503Z,88.90
2017-09-25T04:57:26.978Z,88.34
2017-09-25T04:59:55.343Z,87.34
2017-09-25T05:02:23.691Z,86.97
2017-09-25T05:04:52.051Z,87.20
2017-09-25T05:07:20.391Z,86.70
2017-09-25T05:09:48.738Z,86.59
2017-09-25T05:12:17.103Z,86.87
2017-09-25T05:14:45.465Z,87.32
2017-09-25T05:17:13.812Z,87.28
2017-09-25T05:19:42.167Z,87.43
2017-09-25T05:22:10.551Z,88.03
2017-09-25T05:24:38.935Z,87.56
2017-09-25T05:27:07.365Z,87.49
2017-09-25T05:29:35.737Z,87.31
2017-09-25T05:32:04.080Z,87.34
2017-09-25T05:34:32.458Z,87.65
2017-09-25T05:37:00.839Z,87.44
2017-09-25T05:39:29.189Z,88.00
2017-09-25T05:41:57.559Z,88.35
2017-09-25T05:44:25.931Z,87.64
2017-09-25T05:46:54.311Z,87.72
2017-09-25T05:49:22.935Z,88.06
2017-09-25T05:51:51.389Z,87.85
2017-09-25T05:54:19.752Z,89.48
2017-09-25T05:56:48.103Z,89.69
2017-09-25T05:59:16.474Z,89.20
2017-09-25T06:01:46.752Z,90.22
2017-09-25T06:04:15.098Z,89.43
2017-09-25T06:06:43.489Z,89.07
2017-09-25T06:09:11.844Z,88.56
2017-09-25T06:11:40.218Z,88.96
2017-09-25T06:14:08.574Z,89.04
2017-09-25T06:16:37.074Z,88.65
2017-09-25T06:19:05.424Z,89.09
2017-09-25T06:21:33.809Z,89.43
2017-09-25T06:24:02.552Z,89.17
2017-09-25T06:26:30.922Z,88.63
2017-09-25T06:28:59.350Z,89.04
2017-09-25T06:31:27.732Z,89.70
2017-09-25T06:33:56.108Z,89.08
2017-09-25T06:36:24.504Z,89.27
2017-09-25T06:38:52.867Z,88.87
2017-09-25T06:41:21.235Z,89.37
2017-09-25T06:43:49.617Z,89.03
2017-09-25T06:46:17.995Z,89.23
2017-09-25T06:48:46.368Z,89.47
2017-09-25T06:51:14.723Z,88.48
2017-09-25T06:53:43.082Z,88.90
2017-09-25T06:56:11.445Z,88.59
2017-09-25T06:58:41.733Z,89.09
2017-09-25T07:01:10.087Z,87.42
2017-09-25T07:03:38.462Z,87.62
2017-09-25T07:06:06.805Z,87.15
2017-09-25T07:08:35.210Z,87.12
2017-09-25T07:11:04.455Z,86.92
2017-09-25T07:13:32.811Z,86.89
2017-09-25T07:16:01.167Z,87.82
2017-09-25T07:18:29.529Z,87.41
2017-09-25T07:20:59.787Z,87.05
2017-09-25T07:23:28.148Z,86.63
2017-09-25T07:25:56.510Z,87.27
2017-09-25T07:28:24.880Z,88.33
2017-09-25T07:30:53.298Z,86.94
2017-09-25T07:33:21.672Z,86.77
2017-09-25T07:35:50.007Z,86.14
2017-09-25T07:38:18.366Z,85.02
2017-09-25T07:40:47.615Z,87.21
2017-09-25T07:43:15.964Z,86.20
2017-09-25T07:45:44.335Z,87.03
2017-09-25T07:48:12.930Z,86.56
2017-09-25T07:50:41.548Z,86.38
2017-09-25T07:53:23.518Z,86.14
2017-09-25T07:55:52.013Z,85.29
2017-09-25T07:58:21.303Z,86.03
2017-09-25T08:00:49.656Z,85.58
2017-09-25T08:03:18.034Z,87.43
2017-09-25T08:05:46.415Z,86.78
2017-09-25T08:08:14.813Z,85.26
2017-09-25T08:10:43.171Z,85.46
2017-09-25T08:13:11.529Z,84.81
2017-09-25T08:15:40.800Z,84.76
2017-09-25T08:18:09.165Z,83.49
2017-09-25T08:20:37.527Z,83.13
2017-09-25T08:23:05.883Z,83.45
2017-09-25T08:25:34.254Z,83.64
2017-09-25T08:28:02.845Z,83.91
2017-09-25T08:30:31.351Z,83.36
2017-09-25T08:32:59.705Z,83.24
2017-09-25T08:35:28.057Z,82.56
2017-09-25T08:37:56.415Z,81.98
2017-09-25T08:40:24.812Z,81.00
2017-09-25T08:42:53.179Z,80.42
2017-09-25T08:45:21.578Z,79.67
2017-09-25T08:47:49.942Z,80.49
2017-09-25T08:50:18.308Z,80.37
2017-09-25T08:52:46.666Z,80.62
2017-09-25T08:55:15.025Z,79.84
2017-09-25T08:57:43.409Z,81.68
2017-09-25T09:00:11.819Z,82.40
2017-09-25T09:02:40.183Z,81.43
2017-09-25T09:05:08.598Z,81.73
2017-09-25T09:07:37.015Z,81.06
2017-09-25T09:10:05.374Z,82.47
2017-09-25T09:12:33.753Z,82.83
2017-09-25T09:15:02.107Z,82.25
2017-09-25T09:17:30.467Z,83.13
2017-09-25T09:19:58.872Z,82.77
2017-09-25T09:22:27.226Z,80.26
2017-09-25T09:24:55.605Z,79.40
2017-09-25T09:27:23.974Z,79.54
2017-09-25T09:29:52.329Z,79.68
2017-09-25T09:32:20.675Z,79.48
2017-09-25T09:34:49.039Z,77.91
2017-09-25T09:37:26.208Z,76.56
2017-09-25T09:39:54.621Z,74.16
2017-09-25T09:42:22.979Z,66.32
2017-09-25T09:44:51.360Z,62.41
2017-09-25T09:47:19.724Z,58.94
2017-09-25T09:49:48.072Z,54.80
2017-09-25T09:52:16.478Z,54.23
2017-09-25T09:54:44.831Z,54.51
2017-09-25T09:57:24.956Z,54.84
2017-09-25T09:59:53.351Z,54.65
2017-09-25T10:02:21.729Z,56.82
2017-09-25T10:04:50.108Z,58.16
2017-09-25T10:07:18.499Z,60.33
2017-09-25T10:09:46.860Z,62.20
2017-09-25T10:12:15.248Z,62.23
2017-09-25T10:14:43.606Z,63.41
2017-09-25T10:17:11.998Z,62.08
2017-09-25T10:19:42.383Z,61.93
2017-09-25T10:22:10.758Z,62.29
2017-09-25T10:24:39.119Z,63.44
2017-09-25T10:27:12.346Z,63.51
2017-09-25T10:29:40.694Z,64.97
2017-09-25T10:32:09.987Z,67.29
2017-09-25T10:34:38.351Z,67.49
2017-09-25T10:37:06.736Z,68.63
2017-09-25T10:39:35.120Z,69.21
2017-09-25T10:42:03.476Z,69.12
2017-09-25T10:44:35.659Z,68.24
2017-09-25T10:47:04.032Z,68.02
2017-09-25T10:49:32.406Z,67.99
2017-09-25T10:52:00.785Z,69.03
2017-09-25T10:54:29.270Z,69.59
2017-09-25T10:56:57.620Z,68.18
2017-09-25T10:59:25.979Z,70.85
2017-09-25T11:01:54.380Z,69.44
2017-09-25T11:04:22.743Z,67.46
2017-09-25T11:06:51.139Z,68.20
2017-09-25T11:09:19.503Z,67.25
2017-09-25T11:11:47.883Z,64.89
2017-09-25T11:14:16.249Z,64.69
2017-09-25T11:16:44.618Z,65.17
2017-09-25T11:19:13.106Z,66.02
2017-09-25T11:21:41.463Z,66.37
2017-09-25T11:24:09.909Z,66.30
2017-09-25T11:26:38.291Z,66.46
2017-09-25T11:29:06.664Z,67.26
2017-09-25T11:31:35.038Z,67.69
2017-09-25T11:34:03.419Z,68.17
2017-09-25T11:36:31.781Z,68.56
2017-09-25T11:39:00.175Z,68.59
2017-09-25T11:41:28.532Z,68.72
2017-09-25T11:43:56.943Z,68.11
2017-09-25T11:46:25.321Z,67.22
2017-09-25T11:48:53.736Z,68.19
2017-09-25T11:51:22.082Z,68.72
2017-09-25T11:53:50.440Z,69.12
2017-09-25T11:56:18.863Z,69.41
2017-09-25T11:58:47.244Z,70.07
2017-09-25T12:01:15.642Z,70.23
2017-09-25T12:03:48.904Z,69.91
2017-09-25T12:06:17.254Z,69.75
2017-09-25T12:08:45.619Z,70.31
2017-09-25T12:11:14.118Z,69.66
2017-09-25T12:13:42.477Z,69.90
2017-09-25T12:16:10.847Z,69.27
2017-09-25T12:18:39.233Z,70.21
2017-09-25T12:21:07.581Z,68.77
2017-09-25T12:23:35.954Z,67.99
2017-09-25T12:26:04.318Z,68.40
2017-09-25T12:28:32.683Z,68.17
2017-09-25T12:31:01.111Z,68.69
2017-09-25T12:33:29.550Z,69.59
2017-09-25T12:35:57.907Z,70.52
2017-09-25T12:38:26.260Z,71.02
2017-09-25T12:40:54.619Z,71.21
2017-09-25T12:43:23.023Z,70.65
2017-09-25T12:45:51.399Z,70.55
2017-09-25T12:48:19.752Z,69.88
2017-09-25T12:50:49.107Z,69.89
2017-09-25T12:53:17.483Z,68.84
2017-09-25T12:55:46.062Z,70.50
2017-09-25T12:58:14.428Z,70.83
2017-09-25T13:00:42.868Z,72.00
2017-09-25T13:03:11.231Z,71.58
2017-09-25T13:05:39.607Z,71.16
2017-09-25T13:08:08.007Z,70.96
2017-09-25T13:10:36.371Z,70.01
2017-09-25T13:13:04.731Z,70.71
2017-09-25T13:15:33.118Z,72.06
2017-09-25T13:18:01.471Z,72.89
2017-09-25T13:20:30.005Z,73.65
2017-09-25T13:22:58.366Z,74.45
2017-09-25T13:25:26.722Z,75.05
2017-09-25T13:27:55.097Z,74.68
2017-09-25T13:30:23.468Z,75.54
2017-09-25T13:32:51.959Z,74.27
2017-09-25T13:35:20.340Z,75.38
2017-09-25T13:37:48.709Z,73.64
2017-09-25T13:40:17.197Z,72.34
2017-09-25T13:42:45.647Z,71.14
2017-09-25T13:45:13.995Z,71.15
2017-09-25T13:47:42.372Z,71.14
2017-09-25T13:50:10.737Z,71.37
2017-09-25T13:52:39.124Z,72.26
2017-09-25T13:55:07.522Z,72.31
2017-09-25T13:57:35.880Z,72.41
2017-09-25T14:02:37.884Z,71.39
2017-09-25T14:05:06.247Z,71.92
2017-09-25T14:07:34.615Z,70.46
2017-09-25T14:10:02.984Z,70.36
2017-09-25T14:12:31.384Z,70.96
2017-09-25T14:14:59.735Z,70.63
2017-09-25T14:17:28.101Z,69.96
2017-09-25T14:19:56.483Z,69.74
2017-09-25T14:22:25.208Z,70.98
2017-09-25T14:24:53.571Z,69.01
2017-09-25T14:27:21.941Z,69.51
2017-09-25T14:29:50.319Z,70.65
2017-09-25T14:32:18.675Z,70.26
2017-09-25T14:34:47.031Z,70.79
2017-09-25T14:37:15.394Z,70.88
2017-09-25T14:39:43.760Z,71.15
2017-09-25T14:42:12.114Z,71.33
2017-09-25T14:44:40.519Z,69.56
2017-09-25T14:47:08.879Z,70.20
2017-09-25T14:49:37.258Z,69.25
2017-09-25T14:52:05.808Z,69.47
2017-09-25T14:54:34.204Z,70.43
2017-09-25T14:57:07.287Z,70.22
2017-09-25T14:59:39.961Z,71.51
2017-09-25T15:02:08.358Z,71.32
2017-09-25T15:04:36.719Z,71.30
2017-09-25T15:07:05.080Z,72.34
2017-09-25T15:09:33.467Z,71.98
2017-09-25T15:12:01.935Z,72.26
2017-09-25T15:14:30.300Z,72.53
2017-09-25T15:16:58.668Z,71.94
2017-09-25T15:19:27.026Z,72.06
2017-09-25T15:21:55.374Z,72.59
2017-09-25T15:24:23.900Z,73.27
2017-09-25T15:26:52.520Z,74.19
2017-09-25T15:29:20.907Z,73.88
2017-09-25T15:31:49.399Z,73.94
2017-09-25T15:34:17.789Z,75.16
2017-09-25T15:36:46.147Z,76.20
2017-09-25T15:39:14.507Z,76.45
2017-09-25T15:41:42.872Z,76.69
2017-09-25T15:44:11.252Z,76.71
2017-09-25T15:46:39.634Z,76.73
2017-09-25T15:49:08.014Z,77.22
2017-09-25T15:51:43.574Z,77.27
2017-09-25T15:54:11.978Z,77.80
2017-09-25T15:56:41.569Z,77.56
2017-09-25T15:59:10.060Z,77.71
2017-09-25T16:01:38.420Z,77.17
2017-09-25T16:04:06.958Z,78.58
2017-09-25T16:06:35.303Z,77.90
2017-09-25T16:09:04.608Z,78.66
2017-09-25T16:14:30.341Z,79.01
2017-09-25T16:16:59.670Z,78.66
2017-09-25T16:19:28.034Z,78.80
2017-09-25T16:21:56.438Z,79.43
2017-09-25T16:24:24.847Z,79.90
2017-09-25T16:26:53.301Z,80.32
2017-09-25T16:29:21.675Z,80.23
2017-09-25T16:31:50.047Z,79.59
2017-09-25T16:34:18.415Z,79.12
2017-09-25T16:36:46.803Z,79.79
2017-09-25T16:39:15.159Z,80.79
2017-09-25T16:41:43.564Z,81.27
2017-09-25T16:44:11.927Z,80.51
2017-09-25T16:46:40.337Z,83.88
2017-09-25T16:49:08.706Z,83.83
2017-09-25T16:51:37.990Z,84.70
2017-09-25T16:54:06.383Z,84.11
2017-09-25T16:56:34.737Z,82.76
2017-09-25T16:59:03.131Z,84.47
2017-09-25T17:01:31.527Z,85.74
2017-09-25T17:03:59.903Z,86.67
2017-09-25T17:06:28.382Z,88.04
2017-09-25T17:08:56.750Z,87.45
2017-09-25T17:11:25.107Z,88.95
2017-09-25T17:13:53.479Z,88.36
2017-09-25T17:16:21.963Z,89.84
2017-09-25T17:18:50.765Z,89.29
2017-09-25T17:21:19.549Z,89.51
2017-09-25T17:23:48.298Z,89.56
2017-09-25T17:26:17.027Z,89.76
2017-09-25T17:28:45.454Z,89.61
2017-09-25T17:31:13.812Z,89.74
2017-09-25T17:33:42.185Z,89.44
2017-09-25T17:36:10.629Z,89.25
2017-09-25T17:38:39.034Z,89.02
2017-09-25T17:41:07.420Z,90.51
2017-09-25T17:43:35.930Z,91.91
2017-09-25T17:46:04.435Z,91.52
2017-09-25T17:48:32.863Z,91.10
2017-09-25T17:51:01.238Z,91.38
2017-09-25T17:53:29.623Z,91.88
2017-09-25T17:55:58.035Z,92.37
2017-09-25T17:58:26.423Z,92.96
2017-09-25T18:00:54.971Z,93.32
2017-09-25T18:03:23.352Z,92.55
2017-09-25T18:05:51.715Z,92.54
2017-09-25T18:08:20.113Z,92.64
2017-09-25T18:10:48.470Z,91.63
2017-09-25T18:13:16.827Z,91.79
2017-09-25T18:15:45.193Z,92.02
2017-09-25T18:18:13.579Z,90.98
2017-09-25T18:20:41.946Z,91.49
2017-09-25T18:23:10.318Z,91.02
2017-09-25T18:25:39.135Z,92.12
2017-09-25T18:28:07.503Z,91.28
2017-09-25T18:33:17.497Z,92.11
2017-09-25T18:35:56.335Z,91.01
2017-09-25T18:38:25.026Z,90.75
2017-09-25T18:40:53.712Z,90.88
2017-09-25T18:43:22.255Z,92.00
2017-09-25T18:45:50.841Z,92.09
2017-09-25T18:48:20.424Z,91.58
2017-09-25T18:50:48.871Z,91.23
2017-09-25T18:53:17.354Z,91.32
2017-09-25T18:55:45.715Z,91.22
2017-09-25T18:58:14.079Z,90.83
2017-09-25T19:00:42.431Z,91.05
2017-09-25T19:03:10.805Z,90.04
2017-09-25T19:05:39.224Z,90.35
2017-09-25T19:08:07.613Z,91.15
2017-09-25T19:10:36.045Z,91.27
2017-09-25T19:13:04.916Z,91.52
2017-09-25T19:15:33.270Z,91.46
2017-09-25T19:18:01.873Z,91.56
2017-09-25T19:20:30.235Z,91.72
2017-09-25T19:22:58.600Z,91.75
2017-09-25T19:25:26.959Z,92.99
2017-09-25T19:27:55.331Z,93.20
2017-09-25T19:30:23.687Z,93.51
2017-09-25T19:32:52.047Z,93.12
2017-09-25T19:35:20.403Z,93.20
2017-09-25T19:37:48.758Z,93.14
2017-09-25T19:40:17.255Z,92.54
2017-09-25T19:42:45.623Z,93.12
2017-09-25T19:45:13.997Z,92.51
2017-09-25T19:47:47.736Z,92.19
2017-09-25T19:50:18.613Z,92.13
2017-09-25T19:52:47.886Z,92.36
2017-09-25T19:55:17.623Z,92.37
2017-09-25T19:57:49.390Z,92.43
2017-09-25T20:00:17.965Z,92.70
2017-09-25T20:02:46.319Z,93.43
2017-09-25T20:05:14.776Z,93.23
2017-09-25T20:07:43.159Z,92.67
2017-09-25T20:10:11.522Z,92.84
2017-09-25T20:12:40.041Z,92.87
2017-09-25T20:15:13.933Z,93.32
2017-09-25T20:17:42.800Z,93.90
2017-09-25T20:20:11.153Z,93.62
2017-09-25T20:22:39.508Z,93.77
2017-09-25T20:25:07.883Z,93.55
2017-09-25T20:27:36.281Z,93.39
2017-09-25T20:30:04.872Z,92.69
2017-09-25T20:32:33.290Z,92.82
2017-09-25T20:35:01.991Z,92.63
2017-09-25T20:37:32.952Z,92.03
2017-09-25T20:40:01.374Z,92.98
2017-09-25T20:42:49.568Z,92.00
2017-09-25T20:45:18.248Z,91.68
2017-09-25T20:47:46.616Z,91.76
2017-09-25T20:50:14.995Z,91.48
2017-09-25T20:52:43.343Z,91.29
2017-09-25T20:55:11.698Z,90.94
2017-09-25T20:57:40.972Z,91.29
2017-09-25T21:00:09.334Z,91.41
2017-09-25T21:02:37.687Z,92.22
2017-09-25T21:05:06.051Z,92.10
2017-09-25T21:07:34.415Z,92.53
2017-09-25T21:10:02.772Z,92.82
2017-09-25T21:12:31.121Z,92.85
2017-09-25T21:14:59.502Z,92.54
2017-09-25T21:17:27.859Z,92.80
2017-09-25T21:19:56.252Z,93.29
2017-09-25T21:22:24.623Z,92.92
2017-09-25T21:24:53.235Z,92.07
2017-09-25T21:27:25.118Z,91.81
2017-09-25T21:29:53.475Z,91.42
2017-09-25T21:32:21.825Z,90.79
2017-09-25T21:34:50.188Z,90.33
2017-09-25T21:37:18.543Z,90.82
2017-09-25T21:39:46.905Z,90.19
2017-09-25T21:42:15.263Z,90.40
2017-09-25T21:44:43.621Z,91.23
2017-09-25T21:47:11.975Z,91.48
2017-09-25T21:49:42.222Z,91.92
2017-09-25T21:52:10.574Z,92.66
2017-09-25T21:54:39.587Z,92.80
2017-09-25T21:57:07.948Z,93.00
2017-09-25T21:59:36.342Z,93.21
2017-09-25T22:02:04.698Z,92.56
2017-09-25T22:04:33.063Z,92.69
2017-09-25T22:07:01.495Z,93.02
2017-09-25T22:09:29.884Z,93.31
2017-09-25T22:11:58.247Z,93.75
2017-09-25T22:14:26.599Z,94.00
2017-09-25T22:16:55.143Z,93.93
2017-09-25T22:19:23.499Z,93.60
2017-09-25T22:21:51.865Z,94.17
2017-09-25T22:24:20.226Z,94.71
2017-09-25T22:26:48.599Z,94.05
2017-09-25T22:29:16.967Z,94.49
2017-09-25T22:31:45.339Z,94.26
2017-09-25T22:34:13.713Z,94.91
2017-09-25T22:36:42.106Z,94.64
2017-09-25T22:39:10.468Z,94.91
2017-09-25T22:41:38.819Z,95.25
2017-09-25T22:44:07.225Z,95.00
2017-09-25T22:46:35.587Z,94.75
2017-09-25T22:49:03.939Z,94.88
2017-09-25T22:51:32.299Z,94.37
2017-09-25T22:54:01.567Z,94.92
2017-09-25T22:56:29.964Z,94.72
2017-09-25T22:58:58.316Z,94.93
2017-09-25T23:01:26.693Z,95.20
2017-09-25T23:04:04.995Z,95.31
2017-09-25T23:06:33.347Z,95.12
2017-09-25T23:09:01.728Z,95.08
2017-09-25T23:11:30.112Z,94.79
2017-09-25T23:13:58.495Z,94.70
2017-09-25T23:16:26.871Z,94.67
2017-09-25T23:18:55.219Z,95.04
2017-09-25T23:21:23.586Z,95.05
2017-09-25T23:23:51.974Z,95.15
2017-09-25T23:26:20.319Z,95.62
2017-09-25T23:28:48.714Z,95.53
2017-09-25T23:31:17.931Z,95.22
2017-09-25T23:33:46.299Z,95.05
2017-09-25T23:36:14.641Z,95.48
2017-09-25T23:38:42.986Z,95.41
2017-09-25T23:41:11.344Z,95.67
2017-09-25T23:43:39.696Z,95.51
2017-09-25T23:46:08.038Z,95.64
2017-09-25T23:48:36.440Z,95.61
2017-09-25T23:51:04.793Z,95.70
2017-09-25T23:53:33.140Z,95.23
2017-09-25T23:56:01.482Z,95.30
2017-09-25T23:58:29.967Z,95.46
